Time;durP1;ratioP1;P1;durP2;ratioP2;P2;SDS_P1;SDS_P2;PMS_P1;PMS_P2;Temp;Humidity;BMP_temperature;BMP_pressure;BME280_temperature;BME280_humidity;BME280_pressure;Samples;Min_cycle;Max_cycle;Signal;HPM_P1;HPM_P2
2023/01/13 00:04:40;;;;;;;0.95;0.30;;;;;;;9.76;94.25;99476.88;10314938;28;20058;-65
2023/01/13 00:09:41;;;;;;;2.00;0.50;;;;;;;9.72;94.39;99468.31;10311593;28;20053;-64
2023/01/13 00:14:43;;;;;;;0.77;0.30;;;;;;;9.75;94.96;99469.88;10311992;28;20057;-64
2023/01/13 00:19:45;;;;;;;1.40;0.52;;;;;;;9.75;94.86;99459.25;10306026;28;20045;-64
2023/01/13 00:24:46;;;;;;;0.82;0.40;;;;;;;9.70;95.37;99440.22;10309600;28;20132;-64
2023/01/13 00:29:48;;;;;;;2.75;0.73;;;;;;;9.69;96.36;99442.03;10314215;28;20610;-64
2023/01/13 00:34:49;;;;;;;1.80;0.40;;;;;;;9.62;97.01;99426.78;10321973;28;20039;-63
2023/01/13 00:39:51;;;;;;;0.95;0.40;;;;;;;9.65;96.61;99435.31;10314131;28;20419;-64
2023/01/13 00:44:53;;;;;;;0.93;0.38;;;;;;;9.70;96.06;99434.91;10324131;28;20046;-63
2023/01/13 00:49:54;;;;;;;1.40;0.30;;;;;;;9.65;95.48;99414.06;10318954;28;20142;-63
2023/01/13 00:54:55;;;;;;;0.98;0.20;;;;;;;9.72;95.27;99422.31;10314612;28;20720;-62
2023/01/13 00:59:57;;;;;;;4.68;0.43;;;;;;;9.73;94.92;99424.00;10309042;28;20116;-63
2023/01/13 01:04:59;;;;;;;2.65;0.30;;;;;;;9.78;94.46;99416.44;10305439;28;20066;-63
2023/01/13 01:10:01;;;;;;;0.90;0.30;;;;;;;9.77;94.36;99406.78;10303817;28;20443;-64
2023/01/13 01:15:04;;;;;;;0.68;0.20;;;;;;;9.79;94.37;99418.13;10311638;28;20191;-65
2023/01/13 01:20:07;;;;;;;1.25;0.20;;;;;;;9.78;93.56;99405.81;10312167;28;20605;-62
2023/01/13 01:25:08;;;;;;;0.93;0.25;;;;;;;9.81;94.05;99410.84;10311236;28;20640;-62
2023/01/13 01:30:10;;;;;;;0.63;0.20;;;;;;;9.83;94.17;99416.03;10304499;28;20608;-63
2023/01/13 01:35:11;;;;;;;2.20;0.63;;;;;;;9.84;94.72;99410.56;10317689;28;20046;-64
2023/01/13 01:40:13;;;;;;;1.50;0.17;;;;;;;9.79;95.42;99411.94;10315872;28;20049;-64
2023/01/13 01:45:22;;;;;;;1.15;0.30;;;;;;;9.81;96.21;99416.16;10310452;28;20049;-63
2023/01/13 01:50:25;;;;;;;1.30;0.43;;;;;;;9.85;95.51;99404.28;10318040;28;20823;-63
2023/01/13 01:55:31;;;;;;;0.40;0.28;;;;;;;9.86;95.29;99400.66;10309996;28;20157;-63
2023/01/13 02:00:33;;;;;;;1.05;0.20;;;;;;;9.89;95.07;99392.41;10314450;28;20061;-64
2023/01/13 02:05:35;;;;;;;0.75;0.20;;;;;;;9.81;95.30;99383.44;10325790;28;20742;-64
2023/01/13 02:10:38;;;;;;;1.35;0.47;;;;;;;9.80;95.53;99371.94;10313192;28;20053;-63
2023/01/13 02:15:47;;;;;;;1.10;0.30;;;;;;;9.80;94.57;99377.25;10319232;28;20054;-64
2023/01/13 02:21:07;;;;;;;1.60;0.20;;;;;;;9.81;94.40;99368.31;10318352;28;20289;-64
2023/01/13 02:26:30;;;;;;;0.68;0.20;;;;;;;9.81;94.28;99373.63;10315115;28;20038;-64
2023/01/13 02:31:41;;;;;;;2.30;0.20;;;;;;;9.86;93.85;99376.72;10312463;28;20054;-63
2023/01/13 02:36:51;;;;;;;2.13;0.17;;;;;;;9.89;92.61;99371.13;10317507;28;20054;-65
2023/01/13 02:47:26;;;;;;;0.30;0.10;;;;;;;9.89;91.65;99349.88;10313155;28;20050;-64
2023/01/13 02:52:36;;;;;;;1.10;0.20;;;;;;;9.95;91.48;99363.56;10305114;28;20593;-64
2023/01/13 02:57:40;;;;;;;0.45;0.25;;;;;;;9.96;90.57;99341.31;10318515;28;20050;-63
2023/01/13 03:02:41;;;;;;;2.05;0.20;;;;;;;10.00;90.20;99353.34;10321054;28;20051;-64
2023/01/13 03:07:56;;;;;;;0.20;0.00;;;;;;;10.06;89.40;99352.78;10320298;28;20054;-64
2023/01/13 03:13:11;;;;;;;0.22;0.13;;;;;;;10.10;89.25;99348.84;10314934;28;20131;-63
2023/01/13 03:18:18;;;;;;;0.73;0.10;;;;;;;10.14;89.17;99352.91;10314962;28;20133;-63
2023/01/13 03:23:57;;;;;;;0.40;0.10;;;;;;;10.15;88.92;99343.94;10317833;28;20115;-64
2023/01/13 03:29:13;;;;;;;0.40;0.22;;;;;;;10.16;89.04;99329.66;10314921;28;20045;-65
2023/01/13 03:34:21;;;;;;;0.43;0.10;;;;;;;10.17;88.95;99352.59;10315095;28;20524;-65
2023/01/13 03:39:33;;;;;;;1.20;0.15;;;;;;;10.21;88.71;99346.03;10320120;28;20053;-63
2023/01/13 03:44:55;;;;;;;0.20;0.10;;;;;;;10.17;89.55;99334.00;10307334;28;20042;-64
2023/01/13 03:50:05;;;;;;;0.88;0.10;;;;;;;10.18;89.97;99332.19;10314159;28;20046;-62
2023/01/13 03:55:11;;;;;;;0.50;0.10;;;;;;;10.16;90.39;99321.66;10315573;28;20089;-64
2023/01/13 04:00:14;;;;;;;1.65;0.20;;;;;;;10.20;89.97;99323.06;10309905;28;20045;-64
2023/01/13 04:05:17;;;;;;;0.40;0.00;;;;;;;10.22;89.75;99323.78;10314993;28;20041;-63
2023/01/13 04:10:30;;;;;;;1.20;0.10;;;;;;;10.22;89.61;99320.25;10315667;28;20800;-64
2023/01/13 04:15:35;;;;;;;0.98;0.10;;;;;;;10.21;89.18;99314.13;10318368;28;20050;-64
2023/01/13 04:20:38;;;;;;;1.40;0.10;;;;;;;10.24;88.70;99319.16;10311524;28;20718;-65
2023/01/13 04:25:40;;;;;;;0.52;0.10;;;;;;;10.25;88.93;99299.56;10314917;28;20057;-65
2023/01/13 04:30:42;;;;;;;0.22;0.00;;;;;;;10.27;88.37;99288.75;10316587;28;20533;-63
2023/01/13 04:35:45;;;;;;;1.30;0.20;;;;;;;10.26;88.34;99282.59;10310422;28;20045;-63
2023/01/13 04:40:46;;;;;;;0.22;0.13;;;;;;;10.29;88.40;99283.31;10311400;28;20605;-62
2023/01/13 04:45:48;;;;;;;0.40;0.08;;;;;;;10.31;88.01;99278.66;10312827;28;20490;-63
2023/01/13 04:50:50;;;;;;;1.20;0.10;;;;;;;10.32;87.57;99285.66;10311512;28;20053;-63
2023/01/13 04:55:51;;;;;;;0.50;0.20;;;;;;;10.31;87.72;99279.50;10313523;28;20052;-63
2023/01/13 05:00:54;;;;;;;0.57;0.13;;;;;;;10.36;88.23;99271.13;10315637;28;20048;-63
2023/01/13 05:05:55;;;;;;;2.95;0.20;;;;;;;10.37;87.91;99278.97;10316887;28;20125;-63
2023/01/13 05:11:00;;;;;;;0.10;0.00;;;;;;;10.26;90.99;99303.88;10311684;28;20204;-63
2023/01/13 05:26:59;;;;;;;0.20;0.00;;;;;;;10.03;96.29;99319.34;10283200;28;20199;-67
2023/01/13 05:32:01;;;;;;;0.63;0.10;;;;;;;10.11;98.04;99347.88;10320566;28;20056;-65
2023/01/13 05:37:04;;;;;;;1.48;0.28;;;;;;;10.19;99.22;99379.06;10318564;28;20050;-65
2023/01/13 05:47:27;;;;;;;0.50;0.10;;;;;;;9.97;100.00;99372.22;10310650;28;20352;-64
2023/01/13 05:52:28;;;;;;;2.28;0.45;;;;;;;9.98;100.00;99385.38;10315017;28;20137;-65
2023/01/13 05:57:30;;;;;;;1.45;0.13;;;;;;;9.84;99.18;99428.34;10306942;28;20355;-66
2023/01/13 06:02:31;;;;;;;0.98;0.10;;;;;;;9.58;96.81;99420.03;10313120;28;20171;-66
2023/01/13 06:07:33;;;;;;;0.38;0.10;;;;;;;9.48;94.39;99418.22;10306592;28;20639;-66
2023/01/13 06:12:35;;;;;;;0.50;0.30;;;;;;;9.51;90.43;99403.81;10290539;28;20061;-63
2023/01/13 06:17:37;;;;;;;0.95;0.10;;;;;;;9.46;92.72;99406.91;10286845;28;20091;-64
2023/01/13 06:22:45;;;;;;;0.38;0.10;;;;;;;9.34;90.06;99403.53;10293076;28;20045;-65
2023/01/13 06:27:48;;;;;;;0.10;0.00;;;;;;;9.45;90.06;99409.69;10307724;28;20053;-64
2023/01/13 06:32:54;;;;;;;0.75;0.00;;;;;;;9.45;88.27;99425.63;10291745;28;20044;-66
2023/01/13 06:37:59;;;;;;;0.95;0.10;;;;;;;9.37;88.67;99434.28;10291483;28;20098;-65
2023/01/13 06:43:13;;;;;;;2.40;0.20;;;;;;;9.38;90.37;99425.31;10289389;28;21059;-65
2023/01/13 06:48:20;;;;;;;1.20;0.20;;;;;;;9.38;92.67;99407.59;10296934;28;20054;-66
2023/01/13 06:53:22;;;;;;;0.85;0.20;;;;;;;9.35;90.54;99394.59;10311366;28;21559;-66
2023/01/13 06:58:24;;;;;;;2.35;0.70;;;;;;;9.31;91.06;99387.03;10306259;28;20180;-65
2023/01/13 07:03:25;;;;;;;2.60;0.20;;;;;;;9.36;90.20;99416.66;10300195;28;20443;-64
2023/01/13 07:08:27;;;;;;;2.15;0.40;;;;;;;9.26;92.72;99405.16;10303055;28;20118;-65
2023/01/13 07:18:48;;;;;;;1.75;0.20;;;;;;;9.03;95.46;99411.53;10299408;28;20244;-69
2023/01/13 07:23:50;;;;;;;1.48;0.43;;;;;;;9.10;97.07;99397.72;10290862;28;20134;-67
2023/01/13 07:28:51;;;;;;;0.70;0.30;;;;;;;8.97;95.61;99421.84;10301649;28;20056;-65
2023/01/13 07:33:53;;;;;;;2.13;0.30;;;;;;;8.93;97.15;99445.16;10302507;28;20115;-61
2023/01/13 07:38:55;;;;;;;1.95;0.10;;;;;;;8.80;95.62;99426.81;10298313;28;20213;-64
2023/01/13 07:43:57;;;;;;;2.55;0.20;;;;;;;8.72;96.26;99428.44;10303065;28;20051;-62
2023/01/13 07:48:58;;;;;;;1.45;0.35;;;;;;;8.72;95.27;99445.22;10305898;28;20978;-66
2023/01/13 07:54:00;;;;;;;2.30;0.35;;;;;;;8.71;93.50;99462.09;10301651;28;20443;-66
2023/01/13 07:59:02;;;;;;;0.98;0.10;;;;;;;8.72;93.77;99455.81;10300243;28;20776;-63
2023/01/13 08:04:04;;;;;;;1.38;0.45;;;;;;;8.82;93.62;99456.69;10302715;28;20803;-62
2023/01/13 08:09:05;;;;;;;0.43;0.10;;;;;;;8.88;91.15;99470.41;10301011;28;20053;-62
2023/01/13 08:14:07;;;;;;;1.80;0.30;;;;;;;8.96;90.61;99481.22;10297322;28;20054;-63
2023/01/13 08:19:08;;;;;;;3.85;0.35;;;;;;;8.99;89.07;99478.28;10309461;28;20136;-64
2023/01/13 08:24:10;;;;;;;2.10;0.20;;;;;;;8.99;88.95;99481.81;10306027;28;20061;-67
2023/01/13 08:29:11;;;;;;;0.70;0.20;;;;;;;9.02;88.09;99493.94;10303717;28;20157;-62
2023/01/13 08:34:15;;;;;;;5.53;0.93;;;;;;;9.03;88.50;99511.56;10300871;28;20132;-66
2023/01/13 08:39:17;;;;;;;1.80;0.20;;;;;;;9.01;88.96;99513.53;10300080;28;20212;-63
2023/01/13 08:44:19;;;;;;;1.13;0.20;;;;;;;9.05;88.04;99509.59;10298804;28;20583;-64
2023/01/13 08:49:21;;;;;;;1.95;0.50;;;;;;;9.17;89.95;99524.50;10300382;28;20124;-69
2023/01/13 08:54:22;;;;;;;0.75;0.20;;;;;;;9.16;88.78;99517.50;10301501;28;20613;-63
2023/01/13 08:59:24;;;;;;;2.08;0.20;;;;;;;9.20;88.09;99523.38;10303336;28;20587;-62
2023/01/13 09:04:27;;;;;;;3.40;0.40;;;;;;;9.31;85.40;99525.97;10298044;28;20058;-63
2023/01/13 09:09:28;;;;;;;1.38;0.30;;;;;;;9.41;83.71;99530.47;10309587;28;20166;-64
2023/01/13 09:14:33;;;;;;;2.20;0.50;;;;;;;9.28;83.35;99546.66;10301442;28;20053;-62
2023/01/13 09:19:35;;;;;;;3.38;0.47;;;;;;;9.34;82.85;99546.09;10301778;28;20513;-61
2023/01/13 09:24:37;;;;;;;2.90;0.60;;;;;;;9.37;82.13;99561.78;10302197;28;20491;-60
2023/01/13 09:29:39;;;;;;;1.65;0.20;;;;;;;9.41;81.84;99560.53;10295969;28;20049;-60
2023/01/13 09:34:59;;;;;;;1.40;0.40;;;;;;;9.49;80.29;99565.19;10299318;28;20689;-62
2023/01/13 09:40:16;;;;;;;1.95;0.25;;;;;;;9.84;79.68;99572.72;10305458;28;20050;-60
2023/01/13 09:45:27;;;;;;;4.05;0.73;;;;;;;9.87;77.30;99575.09;10295469;28;20058;-60
2023/01/13 09:50:55;;;;;;;6.10;0.70;;;;;;;9.91;78.47;99571.19;10298270;28;20054;-60
2023/01/13 09:55:57;;;;;;;2.92;0.47;;;;;;;10.03;78.06;99579.06;10291568;28;20542;-61
2023/01/13 10:01:26;;;;;;;2.50;0.50;;;;;;;10.19;75.34;99591.81;10293898;28;20713;-62
2023/01/13 10:06:37;;;;;;;2.47;0.82;;;;;;;10.63;71.98;99607.44;10293825;28;21327;-60
2023/01/13 10:17:21;;;;;;;3.08;0.40;;;;;;;11.10;70.32;99583.59;10292813;28;20162;-60
2023/01/13 10:22:37;;;;;;;5.15;1.00;;;;;;;10.92;68.98;99586.97;10294283;28;20774;-59
2023/01/13 10:27:39;;;;;;;6.10;1.38;;;;;;;11.03;66.92;99567.34;10301031;28;20125;-60
2023/01/13 10:32:45;;;;;;;7.47;1.38;;;;;;;11.17;63.37;99562.53;10296066;28;20050;-60
2023/01/13 10:37:55;;;;;;;3.45;0.80;;;;;;;11.29;65.01;99575.56;10306727;28;20134;-63
2023/01/13 10:43:07;;;;;;;2.97;0.70;;;;;;;11.98;60.07;99562.81;10300319;28;20053;-60
2023/01/13 10:48:16;;;;;;;3.90;1.40;;;;;;;16.75;47.78;99572.72;10301994;28;20060;-60
2023/01/13 10:53:22;;;;;;;2.20;0.80;;;;;;;18.52;41.31;99563.97;10300895;28;20042;-64
2023/01/13 10:58:24;;;;;;;3.88;1.05;;;;;;;17.12;45.93;99563.00;10305999;28;20049;-61
2023/01/13 11:03:36;;;;;;;3.70;0.90;;;;;;;14.65;49.94;99569.44;10305606;28;20118;-62
2023/01/13 11:08:44;;;;;;;4.18;0.95;;;;;;;17.04;46.42;99565.75;10302665;28;20057;-62
2023/01/13 11:19:26;;;;;;;2.75;0.90;;;;;;;20.94;37.88;99564.22;10279075;28;20058;-62
2023/01/13 11:24:41;;;;;;;2.42;0.63;;;;;;;24.08;31.69;99558.78;10301606;28;20049;-61
2023/01/13 11:29:52;;;;;;;4.13;0.47;;;;;;;21.43;34.08;99565.66;10299558;28;20041;-62
2023/01/13 11:34:59;;;;;;;1.80;0.60;;;;;;;15.41;45.42;99585.28;10303923;28;20496;-62
2023/01/13 11:40:24;;;;;;;3.15;0.90;;;;;;;15.02;48.81;99586.84;10300781;28;20690;-61
2023/01/13 11:45:39;;;;;;;3.30;0.68;;;;;;;20.65;37.21;99582.50;10303119;28;20133;-60
2023/01/13 11:50:49;;;;;;;3.65;0.63;;;;;;;25.28;29.11;99586.94;10300803;28;20054;-62
2023/01/13 11:56:15;;;;;;;4.30;0.70;;;;;;;25.39;28.43;99597.00;10304268;28;20058;-62
2023/01/13 12:01:26;;;;;;;3.67;1.05;;;;;;;21.37;34.32;99593.56;10301759;28;20149;-63
2023/01/13 12:06:35;;;;;;;5.38;1.30;;;;;;;23.11;29.73;99580.06;10294853;28;20058;-63
2023/01/13 12:17:42;;;;;;;5.13;1.47;;;;;;;20.94;34.39;99583.16;10288637;28;20130;-61
2023/01/13 12:22:46;;;;;;;3.40;0.82;;;;;;;17.46;38.23;99602.03;10293450;28;20060;-62
2023/01/13 12:27:52;;;;;;;4.30;1.10;;;;;;;14.41;44.92;99592.47;10290497;28;20042;-61
2023/01/13 12:33:01;;;;;;;3.50;0.93;;;;;;;13.96;50.80;99607.03;10297906;28;20060;-62
2023/01/13 12:38:19;;;;;;;4.38;1.45;;;;;;;18.24;43.25;99589.00;10299386;28;20050;-60
2023/01/13 12:48:58;;;;;;;4.30;1.00;;;;;;;25.30;28.38;99582.09;10304440;28;20648;-61
2023/01/13 12:54:02;;;;;;;3.08;0.73;;;;;;;26.43;25.97;99587.19;10303987;28;20157;-61
2023/01/13 12:59:33;;;;;;;3.03;0.80;;;;;;;25.51;26.61;99585.28;10302397;28;20123;-61
2023/01/13 13:04:55;;;;;;;3.27;0.90;;;;;;;18.11;35.44;99578.88;10286731;28;20075;-61
2023/01/13 13:10:01;;;;;;;2.72;0.95;;;;;;;15.38;42.54;99591.81;10295936;28;20101;-61
2023/01/13 13:15:03;;;;;;;6.53;1.00;;;;;;;14.37;45.02;99579.59;10295742;28;21292;-60
2023/01/13 13:20:43;;;;;;;3.90;1.63;;;;;;;13.41;47.90;99579.72;10293271;28;20457;-60
2023/01/13 13:26:25;;;;;;;6.32;1.67;;;;;;;12.98;51.76;99576.06;10297310;28;20061;-57
2023/01/13 13:31:48;;;;;;;5.05;1.40;;;;;;;12.69;54.31;99603.88;10296161;28;20034;-49
2023/01/13 13:37:10;;;;;;;4.38;1.67;;;;;;;12.40;58.91;99625.47;10300251;28;20117;-58
2023/01/13 13:47:45;;;;;;;4.55;0.95;;;;;;;10.46;67.16;99675.50;10297873;28;20481;-62
2023/01/13 13:53:04;;;;;;;1.55;0.90;;;;;;;14.77;55.92;99664.56;10318957;28;20050;-68
2023/01/13 13:58:16;;;;;;;2.55;1.17;;;;;;;14.20;55.62;99672.38;10319582;28;20045;-62
2023/01/13 14:03:30;;;;;;;2.58;0.70;;;;;;;13.04;59.29;99684.97;10305165;28;20153;-63
2023/01/13 14:08:35;;;;;;;3.77;0.97;;;;;;;12.12;62.55;99681.50;10305487;28;20089;-67
2023/01/13 14:13:36;;;;;;;4.40;1.15;;;;;;;11.76;65.04;99688.50;10304608;28;20743;-68
2023/01/13 14:18:46;;;;;;;12.63;2.28;;;;;;;11.61;64.81;99672.13;10304750;28;20410;-68
2023/01/13 14:23:57;;;;;;;4.18;0.90;;;;;;;11.39;65.24;99695.44;10309561;28;20069;-70
2023/01/13 14:29:01;;;;;;;4.45;1.70;;;;;;;11.38;63.26;99703.56;10301669;28;20049;-62
2023/01/13 14:34:03;;;;;;;5.57;1.35;;;;;;;11.56;63.18;99712.53;10297875;28;20059;-62
2023/01/13 14:39:38;;;;;;;4.13;1.10;;;;;;;11.29;62.66;99705.28;10298558;28;20066;-61
2023/01/13 14:44:44;;;;;;;3.97;0.85;;;;;;;10.83;64.12;99697.00;10297486;28;20170;-61
2023/01/13 14:49:53;;;;;;;2.78;0.85;;;;;;;10.40;64.89;99714.13;10302089;28;20464;-65
2023/01/13 14:55:04;;;;;;;7.32;1.90;;;;;;;10.24;65.28;99728.75;10285128;28;20247;-60
2023/01/13 15:00:15;;;;;;;4.15;1.42;;;;;;;10.33;63.86;99729.81;10325176;28;20076;-63
2023/01/13 15:05:16;;;;;;;3.88;1.45;;;;;;;10.30;63.76;99750.47;10320177;28;20050;-66
2023/01/13 15:10:25;;;;;;;5.03;1.20;;;;;;;10.12;63.79;99743.13;10311980;28;20780;-61
2023/01/13 15:15:29;;;;;;;5.47;1.02;;;;;;;10.23;63.38;99750.19;10298389;28;20058;-62
2023/01/13 15:20:30;;;;;;;4.15;1.15;;;;;;;9.99;63.81;99753.16;10299230;28;20139;-60
2023/01/13 15:25:33;;;;;;;9.73;2.35;;;;;;;9.93;63.22;99769.63;10300157;28;20131;-61
2023/01/13 15:30:35;;;;;;;4.38;1.08;;;;;;;9.84;63.80;99790.69;10304668;28;20173;-61
2023/01/13 15:35:37;;;;;;;5.88;1.67;;;;;;;9.89;64.41;99795.63;10299113;28;20220;-62
2023/01/13 15:40:40;;;;;;;3.80;1.08;;;;;;;9.91;65.44;99799.84;10297926;28;20291;-62
2023/01/13 15:51:03;;;;;;;5.30;1.25;;;;;;;9.83;66.75;99802.31;10303958;28;20176;-65
2023/01/13 15:56:12;;;;;;;2.75;1.27;;;;;;;9.79;67.54;99808.84;10289559;28;20053;-65
2023/01/13 16:01:13;;;;;;;6.00;1.90;;;;;;;9.72;68.50;99827.13;10310105;28;20053;-65
2023/01/13 16:06:18;;;;;;;5.80;1.83;;;;;;;9.65;68.12;99827.75;10295973;28;20045;-66
2023/01/13 16:11:20;;;;;;;4.82;1.58;;;;;;;9.50;68.74;99825.44;10302416;28;20054;-68
2023/01/13 16:16:24;;;;;;;6.00;1.33;;;;;;;9.33;68.45;99841.91;10297082;28;20053;-67
2023/01/13 16:21:25;;;;;;;3.97;0.98;;;;;;;9.24;68.54;99840.00;10301405;28;20054;-65
2023/01/13 16:26:28;;;;;;;5.10;1.60;;;;;;;9.25;69.08;99850.50;10298386;28;20529;-65
2023/01/13 16:31:32;;;;;;;8.05;1.90;;;;;;;9.24;68.70;99867.41;10298331;28;20049;-64
2023/01/13 16:36:35;;;;;;;6.30;1.50;;;;;;;9.29;67.31;99881.16;10296796;28;20057;-67
2023/01/13 16:41:37;;;;;;;3.90;1.23;;;;;;;9.28;67.80;99886.59;10295644;28;20893;-66
2023/01/13 16:46:39;;;;;;;14.35;2.90;;;;;;;9.29;67.94;99882.97;10293562;28;20153;-67
2023/01/13 16:51:41;;;;;;;3.75;1.30;;;;;;;9.26;67.69;99910.59;10301469;28;20176;-66
2023/01/13 16:56:43;;;;;;;3.40;0.90;;;;;;;9.31;68.15;99902.28;10299866;28;20232;-67
2023/01/13 17:01:44;;;;;;;3.97;1.27;;;;;;;9.20;68.62;99922.59;10302498;28;20050;-66
2023/01/13 17:06:54;;;;;;;4.22;1.45;;;;;;;9.27;69.17;99944.16;10293187;28;20054;-69
2023/01/13 17:11:56;;;;;;;5.15;1.45;;;;;;;9.30;69.47;99933.28;10295717;28;20121;-68
2023/01/13 17:16:58;;;;;;;4.68;1.63;;;;;;;9.24;68.99;99944.41;10297764;28;20139;-68
2023/01/13 17:21:59;;;;;;;5.57;2.53;;;;;;;9.23;69.72;99950.69;10298138;28;20120;-67
2023/01/13 17:27:02;;;;;;;6.10;1.67;;;;;;;9.19;69.69;99947.44;10295624;28;20085;-71
2023/01/13 17:32:04;;;;;;;7.15;1.92;;;;;;;9.23;69.68;99957.81;10297879;28;20048;-70
2023/01/13 17:37:05;;;;;;;6.35;1.70;;;;;;;9.18;69.15;99960.84;10298395;28;20054;-66
2023/01/13 17:42:07;;;;;;;7.50;2.38;;;;;;;9.22;69.51;99958.78;10298507;28;20174;-67
2023/01/13 17:47:08;;;;;;;6.43;2.05;;;;;;;9.18;68.45;99966.16;10301021;28;20185;-71
2023/01/13 17:52:10;;;;;;;8.00;1.70;;;;;;;9.11;68.16;99989.72;10300513;28;20046;-68
2023/01/13 17:57:11;;;;;;;4.55;1.80;;;;;;;9.06;68.44;99980.41;10295604;28;20045;-68
2023/01/13 18:02:13;;;;;;;5.75;1.70;;;;;;;9.01;68.30;99992.22;10300225;28;20054;-68
2023/01/13 18:07:15;;;;;;;5.63;2.30;;;;;;;8.99;68.78;99998.59;10289218;28;20112;-68
2023/01/13 18:12:16;;;;;;;3.72;2.03;;;;;;;8.84;69.28;99996.19;10293250;28;20563;-69
2023/01/13 18:17:18;;;;;;;8.98;2.75;;;;;;;8.84;68.93;99990.03;10299301;28;20058;-68
2023/01/13 18:27:40;;;;;;;6.53;1.30;;;;;;;8.92;68.90;100031.94;10297285;28;20045;-68
2023/01/13 18:32:42;;;;;;;4.90;1.48;;;;;;;8.79;68.94;100032.00;10299501;28;20358;-64
2023/01/13 18:37:43;;;;;;;4.28;1.77;;;;;;;8.76;69.96;100035.72;10299650;28;20061;-70
2023/01/13 18:42:52;;;;;;;8.18;2.00;;;;;;;8.64;70.46;100034.03;10294143;28;20041;-67
2023/01/13 18:47:56;;;;;;;6.72;2.83;;;;;;;8.60;70.88;100052.00;10303866;28;20073;-68
2023/01/13 18:52:57;;;;;;;5.32;1.98;;;;;;;8.62;71.25;100043.91;10309294;28;20072;-57
2023/01/13 18:57:59;;;;;;;6.90;2.13;;;;;;;8.59;70.99;100065.38;10305034;28;20053;-56
2023/01/13 19:03:04;;;;;;;6.60;2.70;;;;;;;8.59;71.70;100070.69;10307795;28;20125;-57
2023/01/13 19:08:06;;;;;;;8.98;3.35;;;;;;;8.64;70.98;100079.13;10308284;28;20050;-56
2023/01/13 19:13:08;;;;;;;6.53;2.55;;;;;;;8.72;71.92;100082.06;10310149;28;20054;-57
2023/01/13 19:18:09;;;;;;;7.32;2.58;;;;;;;8.75;70.22;100096.91;10310710;28;20058;-56
2023/01/13 19:23:11;;;;;;;8.60;2.45;;;;;;;8.74;70.51;100101.38;10305688;28;20185;-56
2023/01/13 19:28:13;;;;;;;7.70;2.50;;;;;;;8.77;70.44;100113.56;10304969;28;20057;-58
2023/01/13 19:33:15;;;;;;;7.28;2.63;;;;;;;8.84;70.92;100117.44;10300457;28;20123;-56
2023/01/13 19:38:16;;;;;;;9.00;2.72;;;;;;;8.94;70.00;100134.34;10297899;28;20153;-56
2023/01/13 19:48:38;;;;;;;8.65;2.55;;;;;;;8.96;70.26;100142.19;10300374;28;20050;-55
2023/01/13 19:53:41;;;;;;;6.22;1.98;;;;;;;9.00;69.28;100154.28;10303148;28;20104;-71
2023/01/13 19:58:49;;;;;;;6.57;2.20;;;;;;;8.88;69.21;100145.44;10300549;28;22362;-71
2023/01/13 20:03:50;;;;;;;7.25;2.30;;;;;;;8.82;69.90;100157.34;10298139;28;20046;-71
2023/01/13 20:08:52;;;;;;;8.35;2.03;;;;;;;8.78;69.14;100150.59;10295025;28;20137;-72
2023/01/13 20:13:54;;;;;;;7.90;2.15;;;;;;;8.67;69.66;100158.50;10296629;28;20046;-69
2023/01/13 20:18:56;;;;;;;7.32;2.28;;;;;;;8.70;68.90;100174.19;10299785;28;20133;-72
2023/01/13 20:23:57;;;;;;;6.28;2.63;;;;;;;8.66;69.24;100180.69;10298645;28;20854;-71
2023/01/13 20:28:59;;;;;;;6.28;1.90;;;;;;;8.49;69.15;100182.78;10296325;28;20051;-69
2023/01/13 20:34:00;;;;;;;4.72;1.65;;;;;;;8.57;69.42;100181.38;10299001;28;20192;-70
2023/01/13 20:39:03;;;;;;;4.75;1.73;;;;;;;8.57;69.40;100194.63;10300934;28;20163;-72
2023/01/13 20:44:06;;;;;;;5.50;1.48;;;;;;;8.46;69.55;100198.91;10296725;28;20054;-70
2023/01/13 20:49:11;;;;;;;7.18;2.15;;;;;;;8.42;69.49;100185.94;10310091;28;20394;-71
2023/01/13 20:54:13;;;;;;;7.43;1.58;;;;;;;8.47;69.58;100195.31;10303811;28;20125;-72
2023/01/13 20:59:15;;;;;;;7.05;1.92;;;;;;;8.37;69.73;100204.84;10301067;28;21907;-72
2023/01/13 21:04:16;;;;;;;5.80;1.50;;;;;;;8.37;69.85;100207.50;10299271;28;20140;-70
2023/01/13 21:09:18;;;;;;;6.00;2.42;;;;;;;8.41;69.71;100211.63;10300542;28;20053;-71
2023/01/13 21:19:45;;;;;;;7.10;2.03;;;;;;;8.23;70.27;100208.50;10302017;28;20061;-73
2023/01/13 21:24:46;;;;;;;7.18;1.77;;;;;;;8.12;70.71;100213.72;10304803;28;20056;-74
2023/01/13 21:29:49;;;;;;;4.38;1.48;;;;;;;8.17;71.13;100239.91;10296245;28;20053;-70
2023/01/13 21:34:50;;;;;;;6.20;1.80;;;;;;;8.22;71.01;100241.28;10299105;28;20251;-71
2023/01/13 21:39:52;;;;;;;6.65;1.70;;;;;;;8.27;71.10;100246.25;10297405;28;20605;-69
2023/01/13 21:50:20;;;;;;;8.15;2.25;;;;;;;8.11;71.53;100252.63;10293324;28;20082;-73
2023/01/13 21:55:25;;;;;;;6.40;1.73;;;;;;;8.17;71.88;100269.94;10297312;28;20739;-72
2023/01/13 22:00:29;;;;;;;;;;;;;;;8.11;71.78;100271.19;10299222;28;20330;-70
2023/01/13 22:05:30;;;;;;;4.53;1.83;;;;;;;8.12;72.07;100275.56;10299236;28;20457;-72
2023/01/13 22:10:32;;;;;;;10.30;2.05;;;;;;;8.13;72.05;100282.53;10293509;28;20341;-72
2023/01/13 22:15:36;;;;;;;8.23;3.38;;;;;;;8.13;72.25;100287.00;10285938;28;20071;-72
2023/01/13 22:20:40;;;;;;;7.40;2.15;;;;;;;8.12;72.21;100294.13;10307466;28;20763;-71
2023/01/13 22:25:41;;;;;;;7.55;2.45;;;;;;;8.10;72.54;100303.97;10306224;28;20042;-72
2023/01/13 22:30:43;;;;;;;5.57;1.88;;;;;;;8.05;73.50;100306.09;10311112;28;20112;-71
2023/01/13 22:35:44;;;;;;;11.45;2.42;;;;;;;8.04;76.27;100300.91;10307308;28;20140;-71
2023/01/13 22:40:58;;;;;;;5.80;1.92;;;;;;;7.87;80.51;100310.03;10305426;28;20065;-72
2023/01/13 22:46:05;;;;;;;4.80;2.05;;;;;;;7.96;82.29;100322.63;10296460;28;20060;-73
2023/01/13 22:51:08;;;;;;;4.80;1.70;;;;;;;8.05;83.98;100311.41;10312186;28;20060;-73
2023/01/13 22:56:17;;;;;;;5.03;1.88;;;;;;;8.28;85.72;100322.22;10317977;28;20049;-73
2023/01/13 23:01:19;;;;;;;9.05;2.63;;;;;;;8.41;83.84;100338.13;10315809;28;20049;-73
2023/01/13 23:06:23;;;;;;;11.07;2.50;;;;;;;8.31;85.83;100335.25;10314199;28;20053;-74
2023/01/13 23:11:27;;;;;;;10.20;2.28;;;;;;;8.34;85.71;100342.16;10319219;28;20148;-72
2023/01/13 23:16:31;;;;;;;5.43;1.95;;;;;;;8.12;85.12;100338.31;10321642;28;20054;-72
2023/01/13 23:21:36;;;;;;;8.15;2.30;;;;;;;7.96;83.63;100325.28;10334360;28;20054;-74
2023/01/13 23:26:38;;;;;;;8.05;2.72;;;;;;;7.99;84.84;100342.75;10342369;28;20462;-74
2023/01/13 23:31:39;;;;;;;10.45;2.72;;;;;;;8.06;84.62;100349.34;10319618;28;20137;-74
2023/01/13 23:36:42;;;;;;;8.05;2.50;;;;;;;8.28;85.37;100348.72;10320726;28;20136;-73
2023/01/13 23:41:44;;;;;;;8.30;2.38;;;;;;;8.23;84.99;100357.00;10316895;28;20038;-73
2023/01/13 23:46:45;;;;;;;8.82;2.38;;;;;;;8.23;85.33;100345.56;10323698;28;20058;-74
2023/01/13 23:51:49;;;;;;;8.23;2.30;;;;;;;8.25;85.02;100335.69;10318352;28;20199;-73
2023/01/13 23:56:51;;;;;;;10.50;3.40;;;;;;;8.18;85.17;100334.41;10315614;28;20054;-74
